Time;durP1;ratioP1;P1;durP2;ratioP2;P2;SDS_P1;SDS_P2;PMS_P1;PMS_P2;Temp;Humidity;BMP_temperature;BMP_pressure;BME280_temperature;BME280_humidity;BME280_pressure;Samples;Min_cycle;Max_cycle;Signal;HPM_P1;HPM_P2
2023/03/20 00:08:11;;;;;;;28.87;9.03;;;6.90;99.90;;;;;;20798963;28;20037;-77
2023/03/20 00:18:18;;;;;;;26.73;10.57;;;6.90;99.90;;;;;;20843558;28;20030;-77
2023/03/20 00:28:32;;;;;;;29.10;10.55;;;7.00;99.90;;;;;;20844505;28;20534;-77
2023/03/20 00:38:32;;;;;;;42.67;9.73;;;7.00;99.90;;;;;;20841223;28;20101;-77
2023/03/20 00:48:35;;;;;;;25.20;9.80;;;6.90;99.90;;;;;;20840362;28;20033;-77
2023/03/20 00:58:37;;;;;;;94.28;10.05;;;6.90;99.90;;;;;;20837087;28;20033;-77
2023/03/20 01:08:39;;;;;;;217.95;15.15;;;6.90;99.90;;;;;;20834690;28;20400;-77
2023/03/20 01:18:40;;;;;;;48.25;10.00;;;6.70;99.90;;;;;;20832374;28;20049;-76
2023/03/20 01:28:41;;;;;;;;;;;6.50;99.90;;;;;;20833608;28;20096;-77
2023/03/20 01:38:42;;;;;;;26.25;9.18;;;6.50;99.90;;;;;;20834374;28;19916;-77
2023/03/20 01:48:50;;;;;;;234.02;11.85;;;6.50;99.90;;;;;;20831581;28;20033;-77
2023/03/20 01:58:58;;;;;;;123.18;8.00;;;6.20;99.90;;;;;;20830593;28;20033;-76
2023/03/20 02:08:59;;;;;;;17.98;5.72;;;6.10;99.90;;;;;;20830557;28;20120;-77
2023/03/20 02:19:08;;;;;;;136.70;9.50;;;6.30;99.90;;;;;;20828126;28;20030;-77
2023/03/20 02:29:21;;;;;;;30.35;7.03;;;6.40;99.90;;;;;;20829356;28;20036;-77
2023/03/20 02:39:25;;;;;;;36.55;8.55;;;6.40;99.90;;;;;;20827715;28;20041;-77
2023/03/20 02:49:41;;;;;;;43.97;9.82;;;6.40;99.90;;;;;;20846463;28;20029;-77
2023/03/20 03:00:07;;;;;;;35.53;9.70;;;6.50;99.90;;;;;;20862698;28;20151;-77
2023/03/20 03:10:30;;;;;;;26.42;9.63;;;6.50;99.90;;;;;;20811107;28;20053;-77
2023/03/20 03:20:35;;;;;;;21.33;8.05;;;6.60;99.90;;;;;;20828679;28;20034;-77
2023/03/20 03:30:38;;;;;;;16.52;7.05;;;6.60;99.90;;;;;;20841160;28;20076;-77
2023/03/20 03:40:48;;;;;;;14.65;7.03;;;6.80;99.90;;;;;;20845681;28;20079;-77
2023/03/20 03:50:54;;;;;;;15.82;7.15;;;6.90;99.90;;;;;;20829428;28;20519;-77
2023/03/20 04:00:58;;;;;;;17.67;7.78;;;6.70;99.90;;;;;;20845826;28;20034;-77
2023/03/20 04:10:59;;;;;;;15.40;7.88;;;6.90;99.90;;;;;;20839999;28;20034;-77
2023/03/20 04:21:00;;;;;;;16.60;7.32;;;6.80;99.90;;;;;;20841253;28;20518;-77
2023/03/20 04:31:02;;;;;;;19.48;8.90;;;6.80;99.90;;;;;;20822386;28;20075;-77
2023/03/20 04:41:25;;;;;;;16.02;6.93;;;6.80;99.90;;;;;;20807925;28;20056;-78
2023/03/20 04:51:29;;;;;;;21.55;10.90;;;6.80;99.90;;;;;;20821732;28;20084;-77
2023/03/20 05:01:31;;;;;;;20.83;10.07;;;6.80;99.90;;;;;;20839122;28;20029;-76
2023/03/20 05:11:33;;;;;;;23.88;10.55;;;6.80;99.90;;;;;;20830021;28;20029;-77
2023/03/20 05:21:53;;;;;;;21.35;9.77;;;6.80;99.90;;;;;;20747853;28;20034;-76
2023/03/20 05:31:54;;;;;;;26.17;11.47;;;7.00;99.90;;;;;;20749670;28;20109;-77
2023/03/20 05:42:21;;;;;;;16.80;8.98;;;7.10;99.90;;;;;;20845998;23;20506;-83
2023/03/20 05:52:40;;;;;;;17.08;8.35;;;7.10;99.90;;;;;;20767847;28;20042;-80
2023/03/20 06:02:55;;;;;;;16.92;8.95;;;7.10;99.90;;;;;;20744400;28;20551;-81
2023/03/20 06:13:22;;;;;;;21.33;7.72;;;7.10;99.90;;;;;;20791383;28;20079;-83
2023/03/20 06:23:24;;;;;;;10.95;6.72;;;7.20;99.90;;;;;;20808507;28;20025;-82
2023/03/20 06:33:25;;;;;;;14.07;5.78;;;7.40;99.90;;;;;;20787711;28;20486;-83
2023/03/20 06:43:32;;;;;;;14.75;6.78;;;7.40;99.90;;;;;;20805601;28;20038;-84
2023/03/20 06:53:34;;;;;;;11.32;6.70;;;7.50;99.90;;;;;;20769083;28;20035;-84
2023/03/20 07:03:40;;;;;;;12.85;7.82;;;7.70;99.90;;;;;;20737494;28;20038;-83
2023/03/20 07:13:42;;;;;;;14.60;7.80;;;7.80;99.90;;;;;;20723036;28;20030;-83
2023/03/20 07:23:56;;;;;;;15.20;7.32;;;7.90;99.90;;;;;;20738919;28;20037;-83
2023/03/20 07:33:59;;;;;;;14.45;7.22;;;8.20;99.90;;;;;;20729547;28;20116;-84
2023/03/20 07:44:00;;;;;;;12.32;6.35;;;8.40;99.90;;;;;;20803450;28;20060;-84
2023/03/20 07:54:04;;;;;;;17.50;6.93;;;8.40;99.90;;;;;;20819489;28;20029;-84
2023/03/20 08:04:05;;;;;;;14.70;7.53;;;8.50;99.90;;;;;;20802781;28;20039;-85
2023/03/20 08:14:06;;;;;;;2.97;2.17;;;9.70;99.90;;;;;;20832579;28;20061;-85
2023/03/20 08:24:07;;;;;;;2.63;1.30;;;12.20;99.90;;;;;;20815173;28;20022;-85
2023/03/20 08:34:08;;;;;;;3.88;2.70;;;13.20;99.90;;;;;;20779083;28;20040;-82
2023/03/20 08:44:09;;;;;;;4.27;2.50;;;11.20;99.90;;;;;;20831380;28;20041;-83
2023/03/20 08:54:10;;;;;;;3.87;1.90;;;12.70;99.90;;;;;;20830848;28;20044;-84
2023/03/20 09:04:12;;;;;;;1.87;1.10;;;13.20;99.90;;;;;;20823034;28;20141;-84
2023/03/20 09:14:13;;;;;;;0.50;0.38;;;12.40;99.90;;;;;;20747634;28;20132;-84
2023/03/20 09:24:15;;;;;;;1.23;0.50;;;11.90;99.90;;;;;;20746257;28;20606;-84
2023/03/20 09:34:16;;;;;;;0.95;0.50;;;12.00;99.90;;;;;;20758044;28;20477;-85
2023/03/20 09:44:35;;;;;;;0.30;0.30;;;12.80;99.90;;;;;;20826930;28;20064;-85
2023/03/20 09:54:40;;;;;;;0.65;0.40;;;12.50;99.90;;;;;;20810323;28;20040;-85
2023/03/20 10:04:42;;;;;;;0.55;0.38;;;12.00;99.90;;;;;;20813971;28;20040;-84
2023/03/20 10:14:58;;;;;;;2.00;0.50;;;12.60;99.90;;;;;;20744339;28;20030;-82
2023/03/20 10:25:00;;;;;;;2.38;0.95;;;13.40;99.90;;;;;;20727540;28;20486;-82
2023/03/20 10:35:12;;;;;;;0.93;0.52;;;11.90;99.90;;;;;;20758615;28;20116;-82
2023/03/20 10:45:38;;;;;;;2.40;0.35;;;11.90;99.90;;;;;;20741232;28;20688;-85
2023/03/20 10:55:42;;;;;;;0.70;0.38;;;12.30;99.90;;;;;;20741844;28;20532;-86
2023/03/20 11:05:43;;;;;;;0.60;0.35;;;12.60;99.90;;;;;;20735487;28;20391;-85
2023/03/20 11:15:45;;;;;;;0.43;0.28;;;12.90;99.90;;;;;;20750540;28;20178;-84
2023/03/20 11:25:56;;;;;;;0.80;0.50;;;12.70;99.90;;;;;;20753722;28;20498;-83
2023/03/20 11:35:58;;;;;;;1.30;0.60;;;12.80;99.90;;;;;;20820107;23;20764;-79
2023/03/20 11:46:03;;;;;;;1.48;0.30;;;12.90;99.90;;;;;;20859420;28;20038;-81
2023/03/20 11:56:23;;;;;;;0.38;0.20;;;13.00;99.90;;;;;;20779734;28;20044;-81
2023/03/20 12:06:26;;;;;;;1.33;0.43;;;13.20;99.90;;;;;;20800444;28;20025;-79
2023/03/20 12:16:29;;;;;;;1.95;0.50;;;13.00;99.90;;;;;;20824734;28;20515;-79
2023/03/20 12:26:38;;;;;;;0.70;0.50;;;13.40;99.90;;;;;;20866282;28;20518;-78
2023/03/20 12:36:46;;;;;;;2.28;0.40;;;13.10;99.90;;;;;;20812846;28;20048;-79
2023/03/20 12:46:59;;;;;;;1.25;0.60;;;13.60;99.90;;;;;;20852602;28;20144;-79
2023/03/20 12:57:26;;;;;;;0.60;0.30;;;16.10;99.90;;;;;;20857326;28;20443;-81
2023/03/20 13:07:42;;;;;;;0.55;0.50;;;16.70;99.90;;;;;;20818584;28;20057;-81
2023/03/20 13:17:54;;;;;;;0.88;0.40;;;14.00;99.90;;;;;;20859215;28;20144;-81
2023/03/20 13:28:00;;;;;;;2.97;0.63;;;14.50;99.90;;;;;;20856713;28;20079;-80
2023/03/20 13:38:17;;;;;;;0.68;0.52;;;14.70;99.90;;;;;;20826891;28;20033;-80
2023/03/20 13:48:32;;;;;;;0.90;0.50;;;16.40;99.90;;;;;;20860319;28;20035;-79
2023/03/20 13:58:57;;;;;;;9.38;6.85;;;14.20;99.90;;;;;;20848910;28;20036;-78
2023/03/20 14:08:59;;;;;;;4.88;1.60;;;16.70;99.90;;;;;;20827437;28;20027;-78
2023/03/20 14:19:22;;;;;;;0.93;0.63;;;15.90;99.90;;;;;;20854444;28;20029;-80
2023/03/20 14:29:28;;;;;;;2.22;1.38;;;16.20;99.90;;;;;;20847048;28;20109;-76
2023/03/20 14:39:47;;;;;;;2.25;0.55;;;16.40;99.90;;;;;;20845562;28;20033;-78
2023/03/20 14:50:11;;;;;;;0.75;0.50;;;14.70;99.90;;;;;;20847325;28;20032;-79
2023/03/20 15:00:21;;;;;;;0.40;0.40;;;14.10;99.90;;;;;;20845624;28;20068;-80
2023/03/20 15:10:25;;;;;;;0.77;0.63;;;14.30;99.90;;;;;;20848054;28;20541;-79
2023/03/20 15:20:30;;;;;;;1.60;0.70;;;13.80;99.90;;;;;;20846109;28;20044;-79
2023/03/20 15:30:35;;;;;;;0.90;0.50;;;13.20;99.90;;;;;;20845977;28;20100;-80
2023/03/20 15:40:39;;;;;;;0.73;0.50;;;13.40;99.90;;;;;;20848398;28;20033;-78
2023/03/20 15:50:44;;;;;;;4.80;0.70;;;13.90;99.90;;;;;;20857894;28;20044;-78
2023/03/20 16:00:48;;;;;;;0.68;0.38;;;14.70;99.90;;;;;;20857597;28;20029;-78
2023/03/20 16:11:04;;;;;;;0.60;0.50;;;14.90;99.90;;;;;;20843498;28;20121;-79
2023/03/20 16:21:11;;;;;;;0.93;0.57;;;14.30;99.90;;;;;;20843920;28;20038;-78
2023/03/20 16:31:27;;;;;;;0.50;0.35;;;13.90;99.90;;;;;;20854415;28;20021;-80
2023/03/20 16:41:32;;;;;;;0.60;0.60;;;13.70;99.90;;;;;;20854880;28;20038;-77
2023/03/20 16:51:33;;;;;;;3.97;1.13;;;13.20;99.90;;;;;;20843853;28;20033;-80
2023/03/20 17:01:34;;;;;;;1.30;0.70;;;12.70;99.90;;;;;;20840268;28;20057;-80
2023/03/20 17:11:37;;;;;;;4.87;0.83;;;12.80;99.90;;;;;;20841108;28;20054;-78
2023/03/20 17:21:38;;;;;;;0.80;0.45;;;12.60;99.90;;;;;;20837590;28;20034;-79
2023/03/20 17:31:39;;;;;;;4.60;2.30;;;12.40;99.90;;;;;;20822137;28;20091;-79
2023/03/20 17:41:39;;;;;;;3.77;0.70;;;12.10;99.90;;;;;;20830923;28;20124;-79
2023/03/20 17:51:43;;;;;;;1.37;0.70;;;11.60;99.90;;;;;;20848019;28;20084;-79
2023/03/20 18:01:44;;;;;;;0.95;0.70;;;11.30;99.90;;;;;;20860702;28;20093;-77
2023/03/20 18:11:45;;;;;;;2.07;1.00;;;11.30;99.90;;;;;;20846836;28;20076;-78
2023/03/20 18:21:46;;;;;;;5.07;1.17;;;11.20;99.90;;;;;;20805811;28;20034;-79
2023/03/20 18:31:48;;;;;;;1.50;0.80;;;11.20;99.90;;;;;;20849266;28;20033;-78
2023/03/20 18:41:49;;;;;;;4.43;2.42;;;11.00;99.90;;;;;;20865330;28;20045;-78
2023/03/20 18:51:51;;;;;;;5.50;1.30;;;10.80;99.90;;;;;;20866517;28;20040;-78
2023/03/20 19:01:52;;;;;;;1.15;0.93;;;10.50;99.90;;;;;;20860645;28;20038;-79
2023/03/20 19:11:53;;;;;;;0.80;0.70;;;10.50;99.90;;;;;;20830589;28;20033;-76
2023/03/20 19:21:54;;;;;;;3.97;1.87;;;10.80;99.90;;;;;;20851432;28;20032;-78
2023/03/20 19:31:55;;;;;;;2.40;1.23;;;10.60;99.90;;;;;;20861351;28;20034;-78
2023/03/20 19:41:56;;;;;;;1.80;0.80;;;10.50;99.90;;;;;;20857473;28;20053;-78
2023/03/20 19:51:56;;;;;;;2.73;1.27;;;10.40;99.90;;;;;;20855361;28;20033;-77
2023/03/20 20:01:57;;;;;;;2.60;0.90;;;10.10;99.90;;;;;;20856630;28;20113;-78
2023/03/20 20:11:58;;;;;;;2.27;1.53;;;9.60;99.90;;;;;;20866484;28;20029;-78
2023/03/20 20:21:59;;;;;;;2.87;1.60;;;9.40;99.90;;;;;;20876914;28;20048;-78
2023/03/20 20:32:00;;;;;;;2.73;1.57;;;9.50;99.90;;;;;;20865404;28;20045;-76
2023/03/20 20:42:01;;;;;;;4.03;2.23;;;9.60;99.90;;;;;;20820140;28;20034;-77
2023/03/20 20:52:02;;;;;;;4.60;2.13;;;9.40;99.90;;;;;;20787747;28;20452;-77
2023/03/20 21:02:09;;;;;;;4.10;2.00;;;8.90;99.90;;;;;;20800421;28;20026;-77
2023/03/20 21:12:10;;;;;;;5.95;2.50;;;8.50;99.90;;;;;;20849363;28;20041;-76
2023/03/20 21:22:14;;;;;;;3.20;1.70;;;8.00;99.90;;;;;;20843107;28;20055;-78
2023/03/20 21:32:18;;;;;;;5.15;2.03;;;7.70;99.90;;;;;;20845785;28;20037;-77
2023/03/20 21:42:20;;;;;;;5.03;1.92;;;7.40;99.90;;;;;;20838710;28;20130;-78
2023/03/20 21:52:21;;;;;;;5.50;2.03;;;7.10;99.90;;;;;;20849235;28;20550;-77
2023/03/20 22:02:21;;;;;;;18.30;5.13;;;7.00;99.90;;;;;;20835952;28;20025;-76
2023/03/20 22:12:23;;;;;;;3.40;1.60;;;6.90;99.90;;;;;;20807056;28;20030;-77
2023/03/20 22:22:24;;;;;;;2.60;1.70;;;6.30;99.90;;;;;;20799557;28;20412;-77
2023/03/20 22:32:24;;;;;;;2.35;1.38;;;6.00;99.90;;;;;;20799906;28;20025;-76
2023/03/20 22:42:25;;;;;;;4.60;1.40;;;6.20;99.90;;;;;;20758632;28;20497;-78
2023/03/20 22:52:26;;;;;;;3.15;1.80;;;6.10;99.90;;;;;;20764206;28;20068;-78
2023/03/20 23:02:27;;;;;;;;;;;5.40;99.90;;;;;;20801237;28;20148;-78
2023/03/20 23:12:28;;;;;;;6.83;2.23;;;5.30;99.90;;;;;;20842209;28;19913;-77
2023/03/20 23:22:28;;;;;;;;;;;5.10;99.90;;;;;;20836048;28;20050;-76
2023/03/20 23:32:29;;;;;;;4.00;2.13;;;5.10;99.90;;;;;;20835474;28;19924;-77
2023/03/20 23:42:31;;;;;;;4.60;2.70;;;4.90;99.90;;;;;;20772193;28;20060;-77
2023/03/20 23:52:33;;;;;;;8.60;3.00;;;4.90;99.90;;;;;;20766071;28;20026;-77
